sensor_id;sensor_type;location;lat;lon;timestamp;temperature;humidity
39325;DHT22;25037;49.488;9.900;2024-01-15T00:00:22;-3276.40;66.60
39325;DHT22;25037;49.488;9.900;2024-01-15T00:02:55;-3276.30;66.60
39325;DHT22;25037;49.488;9.900;2024-01-15T00:05:29;-3276.40;66.60
39325;DHT22;25037;49.488;9.900;2024-01-15T00:08:01;-3276.40;66.60
39325;DHT22;25037;49.488;9.900;2024-01-15T00:10:28;-3276.40;66.60
39325;DHT22;25037;49.488;9.900;2024-01-15T00:12:56;-3276.40;66.60
39325;DHT22;25037;49.488;9.900;2024-01-15T00:15:23;-3276.50;66.60
39325;DHT22;25037;49.488;9.900;2024-01-15T00:17:54;-3276.50;66.60
39325;DHT22;25037;49.488;9.900;2024-01-15T00:20:27;-3276.50;66.60
39325;DHT22;25037;49.488;9.900;2024-01-15T00:23:00;-3276.50;66.60
39325;DHT22;25037;49.488;9.900;2024-01-15T00:25:31;-3276.50;66.60
39325;DHT22;25037;49.488;9.900;2024-01-15T00:28:06;-3276.50;66.70
39325;DHT22;25037;49.488;9.900;2024-01-15T00:30:39;-3276.50;66.70
39325;DHT22;25037;49.488;9.900;2024-01-15T00:33:09;-3276.50;66.80
39325;DHT22;25037;49.488;9.900;2024-01-15T00:35:39;-3276.60;66.80
39325;DHT22;25037;49.488;9.900;2024-01-15T00:38:19;-3276.60;66.90
39325;DHT22;25037;49.488;9.900;2024-01-15T00:40:50;-3276.60;67.00
39325;DHT22;25037;49.488;9.900;2024-01-15T00:43:34;-3276.60;67.00
39325;DHT22;25037;49.488;9.900;2024-01-15T00:46:13;-3276.60;67.10
39325;DHT22;25037;49.488;9.900;2024-01-15T00:48:40;-3276.60;67.10
39325;DHT22;25037;49.488;9.900;2024-01-15T00:51:21;-3276.60;67.10
39325;DHT22;25037;49.488;9.900;2024-01-15T00:53:58;-3276.70;67.10
39325;DHT22;25037;49.488;9.900;2024-01-15T00:56:30;-3276.70;67.10
39325;DHT22;25037;49.488;9.900;2024-01-15T00:59:01;-3276.70;67.10
39325;DHT22;25037;49.488;9.900;2024-01-15T01:01:28;-3276.70;67.10
39325;DHT22;25037;49.488;9.900;2024-01-15T01:04:02;0.00;67.20
39325;DHT22;25037;49.488;9.900;2024-01-15T01:06:34;0.00;67.20
39325;DHT22;25037;49.488;9.900;2024-01-15T01:09:03;0.00;67.20
39325;DHT22;25037;49.488;9.900;2024-01-15T01:11:33;0.00;67.20
39325;DHT22;25037;49.488;9.900;2024-01-15T01:14:10;0.00;67.30
39325;DHT22;25037;49.488;9.900;2024-01-15T01:16:56;0.00;67.30
39325;DHT22;25037;49.488;9.900;2024-01-15T01:19:28;0.00;67.30
39325;DHT22;25037;49.488;9.900;2024-01-15T01:22:00;0.00;67.30
39325;DHT22;25037;49.488;9.900;2024-01-15T01:24:27;0.00;67.30
39325;DHT22;25037;49.488;9.900;2024-01-15T01:26:55;0.00;67.40
39325;DHT22;25037;49.488;9.900;2024-01-15T01:29:25;0.00;67.40
39325;DHT22;25037;49.488;9.900;2024-01-15T01:31:53;0.00;67.50
39325;DHT22;25037;49.488;9.900;2024-01-15T01:34:39;0.00;67.50
39325;DHT22;25037;49.488;9.900;2024-01-15T01:37:16;0.00;67.50
39325;DHT22;25037;49.488;9.900;2024-01-15T01:39:44;0.00;67.60
39325;DHT22;25037;49.488;9.900;2024-01-15T01:42:11;0.00;67.60
39325;DHT22;25037;49.488;9.900;2024-01-15T01:44:40;0.10;67.60
39325;DHT22;25037;49.488;9.900;2024-01-15T01:47:07;0.10;67.60
39325;DHT22;25037;49.488;9.900;2024-01-15T01:49:34;0.10;67.60
39325;DHT22;25037;49.488;9.900;2024-01-15T01:52:05;0.20;67.60
39325;DHT22;25037;49.488;9.900;2024-01-15T01:54:35;0.10;67.50
39325;DHT22;25037;49.488;9.900;2024-01-15T01:57:05;0.10;67.60
39325;DHT22;25037;49.488;9.900;2024-01-15T01:59:34;0.20;67.60
39325;DHT22;25037;49.488;9.900;2024-01-15T02:02:03;0.20;67.60
39325;DHT22;25037;49.488;9.900;2024-01-15T02:04:31;0.20;67.70
39325;DHT22;25037;49.488;9.900;2024-01-15T02:06:59;0.20;67.70
39325;DHT22;25037;49.488;9.900;2024-01-15T02:09:27;0.20;67.70
39325;DHT22;25037;49.488;9.900;2024-01-15T02:11:54;0.20;67.70
39325;DHT22;25037;49.488;9.900;2024-01-15T02:14:22;0.20;67.70
39325;DHT22;25037;49.488;9.900;2024-01-15T02:16:49;0.20;67.70
39325;DHT22;25037;49.488;9.900;2024-01-15T02:19:17;0.30;67.80
39325;DHT22;25037;49.488;9.900;2024-01-15T02:21:44;0.30;67.90
39325;DHT22;25037;49.488;9.900;2024-01-15T02:24:12;0.30;68.00
39325;DHT22;25037;49.488;9.900;2024-01-15T02:26:39;0.20;68.00
39325;DHT22;25037;49.488;9.900;2024-01-15T02:29:10;0.30;68.00
39325;DHT22;25037;49.488;9.900;2024-01-15T02:31:39;0.30;68.00
39325;DHT22;25037;49.488;9.900;2024-01-15T02:34:06;0.30;68.10
39325;DHT22;25037;49.488;9.900;2024-01-15T02:36:33;0.30;68.20
39325;DHT22;25037;49.488;9.900;2024-01-15T02:39:00;0.30;68.20
39325;DHT22;25037;49.488;9.900;2024-01-15T02:41:27;0.40;68.30
39325;DHT22;25037;49.488;9.900;2024-01-15T02:43:54;0.40;68.30
39325;DHT22;25037;49.488;9.900;2024-01-15T02:46:21;0.40;68.30
39325;DHT22;25037;49.488;9.900;2024-01-15T02:48:49;0.40;68.30
39325;DHT22;25037;49.488;9.900;2024-01-15T02:51:16;0.40;68.30
39325;DHT22;25037;49.488;9.900;2024-01-15T02:53:43;0.40;68.30
39325;DHT22;25037;49.488;9.900;2024-01-15T02:56:32;0.40;68.30
39325;DHT22;25037;49.488;9.900;2024-01-15T02:59:15;0.50;68.40
39325;DHT22;25037;49.488;9.900;2024-01-15T03:01:46;0.50;68.40
39325;DHT22;25037;49.488;9.900;2024-01-15T03:04:16;0.50;68.40
39325;DHT22;25037;49.488;9.900;2024-01-15T03:06:49;0.50;68.40
39325;DHT22;25037;49.488;9.900;2024-01-15T03:09:16;0.50;68.40
39325;DHT22;25037;49.488;9.900;2024-01-15T03:11:46;0.60;68.40
39325;DHT22;25037;49.488;9.900;2024-01-15T03:14:23;0.60;68.40
39325;DHT22;25037;49.488;9.900;2024-01-15T03:16:56;0.60;68.40
39325;DHT22;25037;49.488;9.900;2024-01-15T03:19:27;0.70;68.40
39325;DHT22;25037;49.488;9.900;2024-01-15T03:21:58;0.70;68.30
39325;DHT22;25037;49.488;9.900;2024-01-15T03:24:27;0.60;68.30
39325;DHT22;25037;49.488;9.900;2024-01-15T03:27:02;0.60;68.40
39325;DHT22;25037;49.488;9.900;2024-01-15T03:29:49;0.70;68.40
39325;DHT22;25037;49.488;9.900;2024-01-15T03:32:44;0.70;68.40
39325;DHT22;25037;49.488;9.900;2024-01-15T03:35:21;0.70;68.40
39325;DHT22;25037;49.488;9.900;2024-01-15T03:37:57;0.70;68.40
39325;DHT22;25037;49.488;9.900;2024-01-15T03:40:27;0.70;68.40
39325;DHT22;25037;49.488;9.900;2024-01-15T03:43:02;0.70;68.40
39325;DHT22;25037;49.488;9.900;2024-01-15T03:45:33;0.70;68.40
39325;DHT22;25037;49.488;9.900;2024-01-15T03:48:02;0.70;68.30
39325;DHT22;25037;49.488;9.900;2024-01-15T03:50:29;0.70;68.40
39325;DHT22;25037;49.488;9.900;2024-01-15T03:52:57;0.70;68.40
39325;DHT22;25037;49.488;9.900;2024-01-15T03:55:24;0.70;68.40
39325;DHT22;25037;49.488;9.900;2024-01-15T03:57:55;0.70;68.40
39325;DHT22;25037;49.488;9.900;2024-01-15T04:00:34;0.70;68.40
39325;DHT22;25037;49.488;9.900;2024-01-15T04:03:14;0.70;68.40
39325;DHT22;25037;49.488;9.900;2024-01-15T04:05:49;0.70;68.40
39325;DHT22;25037;49.488;9.900;2024-01-15T04:08:25;0.70;68.30
39325;DHT22;25037;49.488;9.900;2024-01-15T04:10:59;0.80;68.30
39325;DHT22;25037;49.488;9.900;2024-01-15T04:13:38;0.80;68.30
39325;DHT22;25037;49.488;9.900;2024-01-15T04:16:15;0.80;68.30
39325;DHT22;25037;49.488;9.900;2024-01-15T04:18:48;0.80;68.30
39325;DHT22;25037;49.488;9.900;2024-01-15T04:21:42;0.80;68.30
39325;DHT22;25037;49.488;9.900;2024-01-15T04:24:33;0.80;68.30
39325;DHT22;25037;49.488;9.900;2024-01-15T04:27:07;0.80;68.30
39325;DHT22;25037;49.488;9.900;2024-01-15T04:29:41;0.80;68.30
39325;DHT22;25037;49.488;9.900;2024-01-15T04:32:22;0.80;68.30
39325;DHT22;25037;49.488;9.900;2024-01-15T04:35:02;0.80;68.30
39325;DHT22;25037;49.488;9.900;2024-01-15T04:37:35;0.80;68.20
39325;DHT22;25037;49.488;9.900;2024-01-15T04:40:06;0.80;68.30
39325;DHT22;25037;49.488;9.900;2024-01-15T04:42:42;0.80;68.30
39325;DHT22;25037;49.488;9.900;2024-01-15T04:45:23;0.80;68.20
39325;DHT22;25037;49.488;9.900;2024-01-15T04:47:59;0.90;68.20
39325;DHT22;25037;49.488;9.900;2024-01-15T04:50:28;0.80;68.20
39325;DHT22;25037;49.488;9.900;2024-01-15T04:53:00;0.80;68.10
39325;DHT22;25037;49.488;9.900;2024-01-15T04:55:36;0.90;68.20
39325;DHT22;25037;49.488;9.900;2024-01-15T04:58:11;0.90;68.10
39325;DHT22;25037;49.488;9.900;2024-01-15T05:00:42;0.90;68.20
39325;DHT22;25037;49.488;9.900;2024-01-15T05:03:13;0.90;68.10
39325;DHT22;25037;49.488;9.900;2024-01-15T05:05:40;0.90;68.10
39325;DHT22;25037;49.488;9.900;2024-01-15T05:08:07;0.90;68.10
39325;DHT22;25037;49.488;9.900;2024-01-15T05:10:34;0.90;68.10
39325;DHT22;25037;49.488;9.900;2024-01-15T05:13:01;0.90;68.10
39325;DHT22;25037;49.488;9.900;2024-01-15T05:15:27;0.90;68.10
39325;DHT22;25037;49.488;9.900;2024-01-15T05:17:55;0.90;68.10
39325;DHT22;25037;49.488;9.900;2024-01-15T05:20:22;0.90;68.10
39325;DHT22;25037;49.488;9.900;2024-01-15T05:22:54;0.90;68.10
39325;DHT22;25037;49.488;9.900;2024-01-15T05:25:30;0.90;68.10
39325;DHT22;25037;49.488;9.900;2024-01-15T05:28:01;0.90;68.10
39325;DHT22;25037;49.488;9.900;2024-01-15T05:30:29;0.90;68.10
39325;DHT22;25037;49.488;9.900;2024-01-15T05:33:01;1.00;68.10
39325;DHT22;25037;49.488;9.900;2024-01-15T05:35:43;1.00;68.10
39325;DHT22;25037;49.488;9.900;2024-01-15T05:38:16;1.00;68.10
39325;DHT22;25037;49.488;9.900;2024-01-15T05:40:51;1.10;68.00
39325;DHT22;25037;49.488;9.900;2024-01-15T05:43:36;1.20;68.00
39325;DHT22;25037;49.488;9.900;2024-01-15T05:46:09;1.20;67.90
39325;DHT22;25037;49.488;9.900;2024-01-15T05:48:51;1.20;67.80
39325;DHT22;25037;49.488;9.900;2024-01-15T05:51:31;1.20;67.80
39325;DHT22;25037;49.488;9.900;2024-01-15T05:53:59;1.30;67.80
39325;DHT22;25037;49.488;9.900;2024-01-15T05:56:40;1.20;67.80
39325;DHT22;25037;49.488;9.900;2024-01-15T05:59:11;1.30;67.80
39325;DHT22;25037;49.488;9.900;2024-01-15T06:01:54;1.20;67.80
39325;DHT22;25037;49.488;9.900;2024-01-15T06:04:37;1.20;67.80
39325;DHT22;25037;49.488;9.900;2024-01-15T06:07:04;1.20;67.90
39325;DHT22;25037;49.488;9.900;2024-01-15T06:09:57;1.20;67.90
39325;DHT22;25037;49.488;9.900;2024-01-15T06:12:35;1.20;67.90
39325;DHT22;25037;49.488;9.900;2024-01-15T06:15:16;1.20;67.90
39325;DHT22;25037;49.488;9.900;2024-01-15T06:18:04;1.20;68.00
39325;DHT22;25037;49.488;9.900;2024-01-15T06:20:42;1.10;68.00
39325;DHT22;25037;49.488;9.900;2024-01-15T06:23:23;1.20;68.10
39325;DHT22;25037;49.488;9.900;2024-01-15T06:26:18;1.10;68.10
39325;DHT22;25037;49.488;9.900;2024-01-15T06:28:57;1.10;68.10
39325;DHT22;25037;49.488;9.900;2024-01-15T06:31:38;1.10;68.10
39325;DHT22;25037;49.488;9.900;2024-01-15T06:34:35;1.20;68.20
39325;DHT22;25037;49.488;9.900;2024-01-15T06:37:10;1.20;68.20
39325;DHT22;25037;49.488;9.900;2024-01-15T06:39:42;1.20;68.20
39325;DHT22;25037;49.488;9.900;2024-01-15T06:42:22;1.20;68.10
39325;DHT22;25037;49.488;9.900;2024-01-15T06:44:57;1.30;68.10
39325;DHT22;25037;49.488;9.900;2024-01-15T06:47:31;1.30;68.00
39325;DHT22;25037;49.488;9.900;2024-01-15T06:50:02;1.30;68.00
39325;DHT22;25037;49.488;9.900;2024-01-15T06:52:35;1.30;68.00
39325;DHT22;25037;49.488;9.900;2024-01-15T06:55:09;1.30;68.00
39325;DHT22;25037;49.488;9.900;2024-01-15T06:57:39;1.30;68.00
39325;DHT22;25037;49.488;9.900;2024-01-15T07:00:14;1.30;68.00
39325;DHT22;25037;49.488;9.900;2024-01-15T07:02:53;1.30;68.00
39325;DHT22;25037;49.488;9.900;2024-01-15T07:05:32;1.30;68.00
39325;DHT22;25037;49.488;9.900;2024-01-15T07:08:05;1.40;68.10
39325;DHT22;25037;49.488;9.900;2024-01-15T07:10:44;1.30;68.00
39325;DHT22;25037;49.488;9.900;2024-01-15T07:13:28;1.30;68.00
39325;DHT22;25037;49.488;9.900;2024-01-15T07:16:09;1.40;68.10
39325;DHT22;25037;49.488;9.900;2024-01-15T07:18:36;1.30;68.10
39325;DHT22;25037;49.488;9.900;2024-01-15T07:21:04;1.30;68.10
39325;DHT22;25037;49.488;9.900;2024-01-15T07:23:46;1.30;68.10
39325;DHT22;25037;49.488;9.900;2024-01-15T07:26:33;1.30;68.10
39325;DHT22;25037;49.488;9.900;2024-01-15T07:29:21;1.40;68.20
39325;DHT22;25037;49.488;9.900;2024-01-15T07:32:02;1.30;68.30
39325;DHT22;25037;49.488;9.900;2024-01-15T07:34:30;1.30;68.40
39325;DHT22;25037;49.488;9.900;2024-01-15T07:37:27;1.30;68.40
39325;DHT22;25037;49.488;9.900;2024-01-15T07:39:57;1.30;68.30
39325;DHT22;25037;49.488;9.900;2024-01-15T07:42:51;1.30;68.30
39325;DHT22;25037;49.488;9.900;2024-01-15T07:45:38;1.40;68.40
39325;DHT22;25037;49.488;9.900;2024-01-15T07:48:32;1.40;68.40
39325;DHT22;25037;49.488;9.900;2024-01-15T07:51:06;1.40;68.40
39325;DHT22;25037;49.488;9.900;2024-01-15T07:53:49;1.50;68.40
39325;DHT22;25037;49.488;9.900;2024-01-15T07:56:20;1.50;68.40
39325;DHT22;25037;49.488;9.900;2024-01-15T07:59:08;1.60;68.40
39325;DHT22;25037;49.488;9.900;2024-01-15T08:01:58;1.50;68.40
39325;DHT22;25037;49.488;9.900;2024-01-15T08:04:31;1.60;68.30
39325;DHT22;25037;49.488;9.900;2024-01-15T08:07:11;1.60;68.30
39325;DHT22;25037;49.488;9.900;2024-01-15T08:09:45;1.70;68.30
39325;DHT22;25037;49.488;9.900;2024-01-15T08:12:21;1.70;68.30
39325;DHT22;25037;49.488;9.900;2024-01-15T08:18:27;1.70;68.20
39325;DHT22;25037;49.488;9.900;2024-01-15T08:21:23;1.70;68.30
39325;DHT22;25037;49.488;9.900;2024-01-15T08:24:03;1.80;68.30
39325;DHT22;25037;49.488;9.900;2024-01-15T08:26:44;1.80;68.30
39325;DHT22;25037;49.488;9.900;2024-01-15T08:29:39;1.80;68.20
39325;DHT22;25037;49.488;9.900;2024-01-15T08:32:33;1.80;68.20
39325;DHT22;25037;49.488;9.900;2024-01-15T08:35:31;1.90;68.20
39325;DHT22;25037;49.488;9.900;2024-01-15T08:38:12;1.90;68.20
39325;DHT22;25037;49.488;9.900;2024-01-15T08:40:56;1.90;68.20
39325;DHT22;25037;49.488;9.900;2024-01-15T08:43:44;2.00;68.10
39325;DHT22;25037;49.488;9.900;2024-01-15T08:46:41;2.00;68.10
39325;DHT22;25037;49.488;9.900;2024-01-15T08:49:26;2.00;68.10
39325;DHT22;25037;49.488;9.900;2024-01-15T08:52:21;2.00;68.00
39325;DHT22;25037;49.488;9.900;2024-01-15T08:55:22;2.00;68.00
39325;DHT22;25037;49.488;9.900;2024-01-15T08:58:01;2.10;68.10
39325;DHT22;25037;49.488;9.900;2024-01-15T09:00:33;2.10;68.00
39325;DHT22;25037;49.488;9.900;2024-01-15T09:03:33;2.10;68.00
39325;DHT22;25037;49.488;9.900;2024-01-15T09:06:10;2.20;67.90
39325;DHT22;25037;49.488;9.900;2024-01-15T09:08:54;2.20;67.90
39325;DHT22;25037;49.488;9.900;2024-01-15T09:11:28;2.30;67.90
39325;DHT22;25037;49.488;9.900;2024-01-15T09:14:15;2.30;68.00
39325;DHT22;25037;49.488;9.900;2024-01-15T09:17:24;2.40;67.90
39325;DHT22;25037;49.488;9.900;2024-01-15T09:20:11;2.40;67.90
39325;DHT22;25037;49.488;9.900;2024-01-15T09:22:44;2.50;67.90
39325;DHT22;25037;49.488;9.900;2024-01-15T09:25:26;2.50;67.80
39325;DHT22;25037;49.488;9.900;2024-01-15T09:28:05;2.60;67.80
39325;DHT22;25037;49.488;9.900;2024-01-15T09:30:37;2.70;67.80
39325;DHT22;25037;49.488;9.900;2024-01-15T09:36:42;2.90;67.60
39325;DHT22;25037;49.488;9.900;2024-01-15T09:39:23;3.00;67.40
39325;DHT22;25037;49.488;9.900;2024-01-15T09:42:08;3.10;67.30
39325;DHT22;25037;49.488;9.900;2024-01-15T09:44:41;3.20;67.20
39325;DHT22;25037;49.488;9.900;2024-01-15T09:47:35;3.20;67.20
39325;DHT22;25037;49.488;9.900;2024-01-15T09:50:12;3.30;67.10
39325;DHT22;25037;49.488;9.900;2024-01-15T09:52:40;3.30;67.00
39325;DHT22;25037;49.488;9.900;2024-01-15T09:55:21;3.40;66.90
39325;DHT22;25037;49.488;9.900;2024-01-15T09:57:58;3.50;66.80
39325;DHT22;25037;49.488;9.900;2024-01-15T10:00:33;3.60;66.60
39325;DHT22;25037;49.488;9.900;2024-01-15T10:03:04;3.60;66.50
39325;DHT22;25037;49.488;9.900;2024-01-15T10:05:35;3.70;66.40
39325;DHT22;25037;49.488;9.900;2024-01-15T10:08:25;3.70;66.30
39325;DHT22;25037;49.488;9.900;2024-01-15T10:11:13;3.80;66.20
39325;DHT22;25037;49.488;9.900;2024-01-15T10:13:51;3.80;66.10
39325;DHT22;25037;49.488;9.900;2024-01-15T10:16:48;3.80;66.00
39325;DHT22;25037;49.488;9.900;2024-01-15T10:19:23;3.90;65.90
39325;DHT22;25037;49.488;9.900;2024-01-15T10:21:59;4.00;65.90
39325;DHT22;25037;49.488;9.900;2024-01-15T10:24:30;4.00;65.80
39325;DHT22;25037;49.488;9.900;2024-01-15T10:27:12;4.10;65.90
39325;DHT22;25037;49.488;9.900;2024-01-15T10:29:44;4.00;65.80
39325;DHT22;25037;49.488;9.900;2024-01-15T10:32:20;4.00;65.80
39325;DHT22;25037;49.488;9.900;2024-01-15T10:34:58;4.00;65.80
39325;DHT22;25037;49.488;9.900;2024-01-15T10:37:33;4.00;65.90
39325;DHT22;25037;49.488;9.900;2024-01-15T10:40:06;4.00;65.90
39325;DHT22;25037;49.488;9.900;2024-01-15T10:43:05;4.00;65.90
39325;DHT22;25037;49.488;9.900;2024-01-15T10:45:58;4.00;65.90
39325;DHT22;25037;49.488;9.900;2024-01-15T10:48:43;4.00;66.00
39325;DHT22;25037;49.488;9.900;2024-01-15T10:51:31;4.00;65.90
39325;DHT22;25037;49.488;9.900;2024-01-15T10:54:39;4.00;65.80
39325;DHT22;25037;49.488;9.900;2024-01-15T10:57:21;3.90;65.80
39325;DHT22;25037;49.488;9.900;2024-01-15T11:00:20;3.90;65.80
39325;DHT22;25037;49.488;9.900;2024-01-15T11:03:41;4.00;65.80
39325;DHT22;25037;49.488;9.900;2024-01-15T11:06:40;4.00;65.70
39325;DHT22;25037;49.488;9.900;2024-01-15T11:09:23;3.90;65.70
39325;DHT22;25037;49.488;9.900;2024-01-15T11:15:29;4.10;65.90
39325;DHT22;25037;49.488;9.900;2024-01-15T11:18:06;4.20;65.80
39325;DHT22;25037;49.488;9.900;2024-01-15T11:20:37;4.10;65.70
39325;DHT22;25037;49.488;9.900;2024-01-15T11:23:06;4.10;65.80
39325;DHT22;25037;49.488;9.900;2024-01-15T11:25:38;4.10;66.00
39325;DHT22;25037;49.488;9.900;2024-01-15T11:28:05;4.00;66.00
39325;DHT22;25037;49.488;9.900;2024-01-15T11:30:53;4.00;66.00
39325;DHT22;25037;49.488;9.900;2024-01-15T11:33:47;4.00;66.10
39325;DHT22;25037;49.488;9.900;2024-01-15T11:42:01;4.10;66.10
39325;DHT22;25037;49.488;9.900;2024-01-15T11:44:38;4.20;66.10
39325;DHT22;25037;49.488;9.900;2024-01-15T11:47:07;4.20;66.00
39325;DHT22;25037;49.488;9.900;2024-01-15T11:50:03;4.20;65.90
39325;DHT22;25037;49.488;9.900;2024-01-15T11:52:39;4.10;66.00
39325;DHT22;25037;49.488;9.900;2024-01-15T11:55:17;4.10;66.00
39325;DHT22;25037;49.488;9.900;2024-01-15T11:57:52;4.10;66.10
39325;DHT22;25037;49.488;9.900;2024-01-15T12:00:22;4.10;66.10
39325;DHT22;25037;49.488;9.900;2024-01-15T12:02:50;4.00;66.20
39325;DHT22;25037;49.488;9.900;2024-01-15T12:05:18;4.00;66.20
39325;DHT22;25037;49.488;9.900;2024-01-15T12:07:50;4.00;66.40
39325;DHT22;25037;49.488;9.900;2024-01-15T12:10:19;4.00;66.50
39325;DHT22;25037;49.488;9.900;2024-01-15T12:13:18;4.00;66.60
39325;DHT22;25037;49.488;9.900;2024-01-15T12:15:46;4.00;66.60
39325;DHT22;25037;49.488;9.900;2024-01-15T12:18:17;4.10;66.60
39325;DHT22;25037;49.488;9.900;2024-01-15T12:20:45;4.00;66.60
39325;DHT22;25037;49.488;9.900;2024-01-15T12:23:18;4.00;66.70
39325;DHT22;25037;49.488;9.900;2024-01-15T12:25:47;4.00;66.80
39325;DHT22;25037;49.488;9.900;2024-01-15T12:28:16;4.00;66.80
39325;DHT22;25037;49.488;9.900;2024-01-15T12:30:46;4.00;66.90
39325;DHT22;25037;49.488;9.900;2024-01-15T12:33:17;4.00;67.00
39325;DHT22;25037;49.488;9.900;2024-01-15T12:35:45;3.90;67.10
39325;DHT22;25037;49.488;9.900;2024-01-15T12:38:12;3.90;67.20
39325;DHT22;25037;49.488;9.900;2024-01-15T12:40:39;3.90;67.30
39325;DHT22;25037;49.488;9.900;2024-01-15T12:43:06;3.80;67.40
39325;DHT22;25037;49.488;9.900;2024-01-15T12:45:34;3.80;67.40
39325;DHT22;25037;49.488;9.900;2024-01-15T12:48:08;3.80;67.50
39325;DHT22;25037;49.488;9.900;2024-01-15T12:50:35;3.80;67.60
39325;DHT22;25037;49.488;9.900;2024-01-15T12:53:05;3.80;67.60
39325;DHT22;25037;49.488;9.900;2024-01-15T12:55:33;3.70;67.70
39325;DHT22;25037;49.488;9.900;2024-01-15T12:58:01;3.70;67.70
39325;DHT22;25037;49.488;9.900;2024-01-15T13:00:28;3.70;67.80
39325;DHT22;25037;49.488;9.900;2024-01-15T13:02:59;3.70;67.90
39325;DHT22;25037;49.488;9.900;2024-01-15T13:05:32;3.80;67.90
39325;DHT22;25037;49.488;9.900;2024-01-15T13:08:01;3.80;67.90
39325;DHT22;25037;49.488;9.900;2024-01-15T13:10:28;3.80;67.90
39325;DHT22;25037;49.488;9.900;2024-01-15T13:12:57;3.80;68.00
39325;DHT22;25037;49.488;9.900;2024-01-15T13:15:24;3.80;68.00
39325;DHT22;25037;49.488;9.900;2024-01-15T13:17:51;3.80;68.00
39325;DHT22;25037;49.488;9.900;2024-01-15T13:20:18;3.90;67.90
39325;DHT22;25037;49.488;9.900;2024-01-15T13:22:45;3.90;67.90
39325;DHT22;25037;49.488;9.900;2024-01-15T13:25:12;4.00;67.90
39325;DHT22;25037;49.488;9.900;2024-01-15T13:27:39;4.00;67.80
39325;DHT22;25037;49.488;9.900;2024-01-15T13:30:09;4.00;67.70
39325;DHT22;25037;49.488;9.900;2024-01-15T13:32:37;4.00;67.70
39325;DHT22;25037;49.488;9.900;2024-01-15T13:35:04;4.00;67.60
39325;DHT22;25037;49.488;9.900;2024-01-15T13:37:34;4.00;67.70
39325;DHT22;25037;49.488;9.900;2024-01-15T13:40:01;4.00;67.60
39325;DHT22;25037;49.488;9.900;2024-01-15T13:42:30;4.00;67.60
39325;DHT22;25037;49.488;9.900;2024-01-15T13:44:58;4.10;67.60
39325;DHT22;25037;49.488;9.900;2024-01-15T13:47:25;4.10;67.50
39325;DHT22;25037;49.488;9.900;2024-01-15T13:49:51;4.10;67.50
39325;DHT22;25037;49.488;9.900;2024-01-15T13:52:18;4.30;67.40
39325;DHT22;25037;49.488;9.900;2024-01-15T13:54:45;4.30;67.30
39325;DHT22;25037;49.488;9.900;2024-01-15T13:57:17;4.30;67.10
39325;DHT22;25037;49.488;9.900;2024-01-15T13:59:45;4.40;67.00
39325;DHT22;25037;49.488;9.900;2024-01-15T14:02:13;4.40;66.90
39325;DHT22;25037;49.488;9.900;2024-01-15T14:04:47;4.40;66.90
39325;DHT22;25037;49.488;9.900;2024-01-15T14:07:14;4.30;66.90
39325;DHT22;25037;49.488;9.900;2024-01-15T14:09:42;4.30;66.90
39325;DHT22;25037;49.488;9.900;2024-01-15T14:12:10;4.30;66.90
39325;DHT22;25037;49.488;9.900;2024-01-15T14:14:37;4.30;66.80
39325;DHT22;25037;49.488;9.900;2024-01-15T14:17:04;4.30;66.90
39325;DHT22;25037;49.488;9.900;2024-01-15T14:19:31;4.30;66.90
39325;DHT22;25037;49.488;9.900;2024-01-15T14:21:58;4.20;66.90
39325;DHT22;25037;49.488;9.900;2024-01-15T14:24:25;4.10;67.10
39325;DHT22;25037;49.488;9.900;2024-01-15T14:26:52;4.00;67.10
39325;DHT22;25037;49.488;9.900;2024-01-15T14:29:19;3.90;67.30
39325;DHT22;25037;49.488;9.900;2024-01-15T14:31:47;3.90;67.40
39325;DHT22;25037;49.488;9.900;2024-01-15T14:34:14;3.90;67.50
39325;DHT22;25037;49.488;9.900;2024-01-15T14:36:42;3.80;67.60
39325;DHT22;25037;49.488;9.900;2024-01-15T14:39:09;3.70;67.80
39325;DHT22;25037;49.488;9.900;2024-01-15T14:41:36;3.70;67.90
39325;DHT22;25037;49.488;9.900;2024-01-15T14:44:03;3.60;68.00
39325;DHT22;25037;49.488;9.900;2024-01-15T14:46:30;3.60;68.10
39325;DHT22;25037;49.488;9.900;2024-01-15T14:48:57;3.60;68.20
39325;DHT22;25037;49.488;9.900;2024-01-15T14:51:24;3.50;68.20
39325;DHT22;25037;49.488;9.900;2024-01-15T14:53:51;3.50;68.30
39325;DHT22;25037;49.488;9.900;2024-01-15T14:56:18;3.50;68.30
39325;DHT22;25037;49.488;9.900;2024-01-15T14:58:47;3.50;68.30
39325;DHT22;25037;49.488;9.900;2024-01-15T15:01:15;3.50;68.20
39325;DHT22;25037;49.488;9.900;2024-01-15T15:03:42;3.50;68.20
39325;DHT22;25037;49.488;9.900;2024-01-15T15:06:11;3.40;68.30
39325;DHT22;25037;49.488;9.900;2024-01-15T15:08:39;3.40;68.40
39325;DHT22;25037;49.488;9.900;2024-01-15T15:11:07;3.40;68.50
39325;DHT22;25037;49.488;9.900;2024-01-15T15:13:34;3.40;68.60
39325;DHT22;25037;49.488;9.900;2024-01-15T15:16:11;3.30;68.70
39325;DHT22;25037;49.488;9.900;2024-01-15T15:18:41;3.30;68.70
39325;DHT22;25037;49.488;9.900;2024-01-15T15:21:10;3.30;68.70
39325;DHT22;25037;49.488;9.900;2024-01-15T15:23:38;3.40;69.30
39325;DHT22;25037;49.488;9.900;2024-01-15T15:26:06;3.50;68.90
39325;DHT22;25037;49.488;9.900;2024-01-15T15:28:33;3.50;68.70
39325;DHT22;25037;49.488;9.900;2024-01-15T15:31:07;3.50;68.60
39325;DHT22;25037;49.488;9.900;2024-01-15T15:33:40;3.50;68.60
39325;DHT22;25037;49.488;9.900;2024-01-15T15:36:07;3.40;68.60
39325;DHT22;25037;49.488;9.900;2024-01-15T15:38:34;3.40;68.60
39325;DHT22;25037;49.488;9.900;2024-01-15T15:41:01;3.30;68.60
39325;DHT22;25037;49.488;9.900;2024-01-15T15:43:29;3.30;68.70
39325;DHT22;25037;49.488;9.900;2024-01-15T15:45:57;3.20;68.80
39325;DHT22;25037;49.488;9.900;2024-01-15T15:48:27;3.20;68.80
39325;DHT22;25037;49.488;9.900;2024-01-15T15:50:54;3.20;68.80
39325;DHT22;25037;49.488;9.900;2024-01-15T15:53:23;3.20;68.80
39325;DHT22;25037;49.488;9.900;2024-01-15T15:56:36;3.20;68.70
39325;DHT22;25037;49.488;9.900;2024-01-15T15:59:22;3.20;68.60
39325;DHT22;25037;49.488;9.900;2024-01-15T16:01:51;3.20;68.60
39325;DHT22;25037;49.488;9.900;2024-01-15T16:04:18;3.20;68.60
39325;DHT22;25037;49.488;9.900;2024-01-15T16:06:46;3.20;68.60
39325;DHT22;25037;49.488;9.900;2024-01-15T16:09:17;3.20;68.60
39325;DHT22;25037;49.488;9.900;2024-01-15T16:11:51;3.20;68.60
39325;DHT22;25037;49.488;9.900;2024-01-15T16:14:21;3.20;68.70
39325;DHT22;25037;49.488;9.900;2024-01-15T16:16:48;3.20;68.70
39325;DHT22;25037;49.488;9.900;2024-01-15T16:19:35;3.10;68.70
39325;DHT22;25037;49.488;9.900;2024-01-15T16:22:25;3.00;68.70
39325;DHT22;25037;49.488;9.900;2024-01-15T16:25:12;3.00;68.80
39325;DHT22;25037;49.488;9.900;2024-01-15T16:27:42;3.00;68.70
39325;DHT22;25037;49.488;9.900;2024-01-15T16:30:11;2.90;68.70
39325;DHT22;25037;49.488;9.900;2024-01-15T16:32:57;2.90;68.80
39325;DHT22;25037;49.488;9.900;2024-01-15T16:35:27;2.90;68.80
39325;DHT22;25037;49.488;9.900;2024-01-15T16:37:55;2.90;68.80
39325;DHT22;25037;49.488;9.900;2024-01-15T16:40:22;2.90;68.80
39325;DHT22;25037;49.488;9.900;2024-01-15T16:42:49;2.90;68.80
39325;DHT22;25037;49.488;9.900;2024-01-15T16:45:16;2.80;68.80